sensor_id;sensor_type;location;lat;lon;timestamp;P1;durP1;ratioP1;P2;durP2;ratioP2
22713;SDS011;11524;50.846;4.326;2022-10-31T00:01:14;7.15;;;4.13;;
22713;SDS011;11524;50.846;4.326;2022-10-31T00:03:42;7.13;;;4.50;;
22713;SDS011;11524;50.846;4.326;2022-10-31T00:06:08;8.38;;;4.28;;
22713;SDS011;11524;50.846;4.326;2022-10-31T00:08:33;6.75;;;4.80;;
22713;SDS011;11524;50.846;4.326;2022-10-31T00:10:59;7.57;;;4.57;;
22713;SDS011;11524;50.846;4.326;2022-10-31T00:13:25;6.50;;;4.55;;
22713;SDS011;11524;50.846;4.326;2022-10-31T00:15:51;11.68;;;4.85;;
22713;SDS011;11524;50.846;4.326;2022-10-31T00:18:16;7.30;;;4.50;;
22713;SDS011;11524;50.846;4.326;2022-10-31T00:20:42;7.53;;;4.60;;
22713;SDS011;11524;50.846;4.326;2022-10-31T00:23:08;7.63;;;5.10;;
22713;SDS011;11524;50.846;4.326;2022-10-31T00:25:36;7.30;;;4.30;;
22713;SDS011;11524;50.846;4.326;2022-10-31T00:28:04;6.13;;;4.38;;
22713;SDS011;11524;50.846;4.326;2022-10-31T00:30:31;8.43;;;4.35;;
22713;SDS011;11524;50.846;4.326;2022-10-31T00:32:57;6.32;;;4.00;;
22713;SDS011;11524;50.846;4.326;2022-10-31T00:35:23;5.07;;;3.97;;
22713;SDS011;11524;50.846;4.326;2022-10-31T00:37:48;7.68;;;4.40;;
22713;SDS011;11524;50.846;4.326;2022-10-31T00:40:14;6.45;;;4.20;;
22713;SDS011;11524;50.846;4.326;2022-10-31T00:42:40;7.50;;;4.32;;
22713;SDS011;11524;50.846;4.326;2022-10-31T00:45:07;6.88;;;3.90;;
22713;SDS011;11524;50.846;4.326;2022-10-31T00:47:34;6.72;;;4.35;;
22713;SDS011;11524;50.846;4.326;2022-10-31T00:49:59;6.97;;;4.05;;
22713;SDS011;11524;50.846;4.326;2022-10-31T00:52:25;7.32;;;4.50;;
22713;SDS011;11524;50.846;4.326;2022-10-31T00:54:50;6.30;;;4.22;;
22713;SDS011;11524;50.846;4.326;2022-10-31T00:57:16;6.18;;;4.40;;
22713;SDS011;11524;50.846;4.326;2022-10-31T00:59:42;5.32;;;4.30;;
22713;SDS011;11524;50.846;4.326;2022-10-31T01:02:07;5.47;;;3.85;;
22713;SDS011;11524;50.846;4.326;2022-10-31T01:04:33;5.38;;;3.50;;
22713;SDS011;11524;50.846;4.326;2022-10-31T01:06:58;6.88;;;4.72;;
22713;SDS011;11524;50.846;4.326;2022-10-31T01:09:24;6.18;;;4.22;;
22713;SDS011;11524;50.846;4.326;2022-10-31T01:11:49;9.43;;;4.70;;
22713;SDS011;11524;50.846;4.326;2022-10-31T01:14:15;6.57;;;4.22;;
22713;SDS011;11524;50.846;4.326;2022-10-31T01:16:40;6.85;;;4.20;;
22713;SDS011;11524;50.846;4.326;2022-10-31T01:19:06;7.05;;;4.03;;
22713;SDS011;11524;50.846;4.326;2022-10-31T01:21:31;6.68;;;3.83;;
22713;SDS011;11524;50.846;4.326;2022-10-31T01:23:57;7.32;;;4.30;;
22713;SDS011;11524;50.846;4.326;2022-10-31T01:26:24;7.10;;;3.97;;
22713;SDS011;11524;50.846;4.326;2022-10-31T01:28:52;6.35;;;4.13;;
22713;SDS011;11524;50.846;4.326;2022-10-31T01:31:20;4.50;;;3.88;;
22713;SDS011;11524;50.846;4.326;2022-10-31T01:33:48;5.97;;;3.95;;
22713;SDS011;11524;50.846;4.326;2022-10-31T01:36:25;5.68;;;3.97;;
22713;SDS011;11524;50.846;4.326;2022-10-31T01:38:53;7.07;;;3.90;;
22713;SDS011;11524;50.846;4.326;2022-10-31T01:41:23;6.30;;;3.88;;
22713;SDS011;11524;50.846;4.326;2022-10-31T01:43:55;7.22;;;4.22;;
22713;SDS011;11524;50.846;4.326;2022-10-31T01:46:39;6.43;;;3.83;;
22713;SDS011;11524;50.846;4.326;2022-10-31T01:49:10;7.03;;;3.92;;
22713;SDS011;11524;50.846;4.326;2022-10-31T01:51:45;7.28;;;3.78;;
22713;SDS011;11524;50.846;4.326;2022-10-31T01:54:16;4.97;;;3.92;;
22713;SDS011;11524;50.846;4.326;2022-10-31T01:56:45;5.40;;;4.10;;
22713;SDS011;11524;50.846;4.326;2022-10-31T01:59:14;4.70;;;3.40;;
22713;SDS011;11524;50.846;4.326;2022-10-31T02:01:43;4.85;;;3.50;;
22713;SDS011;11524;50.846;4.326;2022-10-31T02:04:09;5.35;;;3.45;;
22713;SDS011;11524;50.846;4.326;2022-10-31T02:06:36;6.00;;;3.60;;
22713;SDS011;11524;50.846;4.326;2022-10-31T02:09:09;4.57;;;3.35;;
22713;SDS011;11524;50.846;4.326;2022-10-31T02:11:37;4.75;;;3.70;;
22713;SDS011;11524;50.846;4.326;2022-10-31T02:14:05;4.20;;;3.47;;
22713;SDS011;11524;50.846;4.326;2022-10-31T02:16:30;6.10;;;4.20;;
22713;SDS011;11524;50.846;4.326;2022-10-31T02:18:56;5.10;;;3.60;;
22713;SDS011;11524;50.846;4.326;2022-10-31T02:21:28;6.32;;;3.65;;
22713;SDS011;11524;50.846;4.326;2022-10-31T02:37:21;4.60;;;3.85;;
22713;SDS011;11524;50.846;4.326;2022-10-31T02:39:56;4.65;;;3.65;;
22713;SDS011;11524;50.846;4.326;2022-10-31T02:42:42;4.80;;;3.47;;
22713;SDS011;11524;50.846;4.326;2022-10-31T02:45:29;3.80;;;3.05;;
22713;SDS011;11524;50.846;4.326;2022-10-31T02:48:08;4.22;;;3.28;;
22713;SDS011;11524;50.846;4.326;2022-10-31T02:50:37;5.53;;;3.60;;
22713;SDS011;11524;50.846;4.326;2022-10-31T02:53:06;3.95;;;3.15;;
22713;SDS011;11524;50.846;4.326;2022-10-31T02:58:02;4.88;;;3.08;;
22713;SDS011;11524;50.846;4.326;2022-10-31T03:00:48;4.78;;;3.53;;
22713;SDS011;11524;50.846;4.326;2022-10-31T03:06:23;5.00;;;3.38;;
22713;SDS011;11524;50.846;4.326;2022-10-31T03:11:56;6.65;;;3.20;;
22713;SDS011;11524;50.846;4.326;2022-10-31T03:14:32;7.25;;;3.85;;
22713;SDS011;11524;50.846;4.326;2022-10-31T03:17:16;5.13;;;4.10;;
22713;SDS011;11524;50.846;4.326;2022-10-31T03:19:49;4.32;;;3.53;;
22713;SDS011;11524;50.846;4.326;2022-10-31T03:22:20;4.40;;;3.65;;
22713;SDS011;11524;50.846;4.326;2022-10-31T03:24:48;5.72;;;3.97;;
22713;SDS011;11524;50.846;4.326;2022-10-31T03:27:17;6.50;;;4.10;;
22713;SDS011;11524;50.846;4.326;2022-10-31T03:29:47;7.47;;;4.20;;
22713;SDS011;11524;50.846;4.326;2022-10-31T03:32:16;5.88;;;4.07;;
22713;SDS011;11524;50.846;4.326;2022-10-31T03:34:53;5.07;;;3.80;;
22713;SDS011;11524;50.846;4.326;2022-10-31T03:37:21;5.60;;;3.80;;
22713;SDS011;11524;50.846;4.326;2022-10-31T03:39:50;8.82;;;3.80;;
22713;SDS011;11524;50.846;4.326;2022-10-31T03:42:24;5.82;;;3.30;;
22713;SDS011;11524;50.846;4.326;2022-10-31T03:47:23;7.00;;;4.18;;
22713;SDS011;11524;50.846;4.326;2022-10-31T03:49:49;5.18;;;3.97;;
22713;SDS011;11524;50.846;4.326;2022-10-31T03:55:16;5.72;;;3.97;;
22713;SDS011;11524;50.846;4.326;2022-10-31T03:57:44;6.30;;;3.85;;
22713;SDS011;11524;50.846;4.326;2022-10-31T04:00:13;6.28;;;3.63;;
22713;SDS011;11524;50.846;4.326;2022-10-31T04:02:40;5.55;;;3.70;;
22713;SDS011;11524;50.846;4.326;2022-10-31T04:05:09;4.20;;;3.58;;
22713;SDS011;11524;50.846;4.326;2022-10-31T04:07:39;7.32;;;3.75;;
22713;SDS011;11524;50.846;4.326;2022-10-31T04:10:10;6.18;;;4.10;;
22713;SDS011;11524;50.846;4.326;2022-10-31T04:12:38;5.47;;;3.75;;
22713;SDS011;11524;50.846;4.326;2022-10-31T04:15:05;7.50;;;3.65;;
22713;SDS011;11524;50.846;4.326;2022-10-31T04:17:33;5.70;;;3.75;;
22713;SDS011;11524;50.846;4.326;2022-10-31T04:20:01;5.28;;;3.80;;
22713;SDS011;11524;50.846;4.326;2022-10-31T04:22:28;5.90;;;3.80;;
22713;SDS011;11524;50.846;4.326;2022-10-31T04:24:53;5.38;;;3.78;;
22713;SDS011;11524;50.846;4.326;2022-10-31T04:27:19;4.75;;;3.83;;
22713;SDS011;11524;50.846;4.326;2022-10-31T04:29:44;5.05;;;3.70;;
22713;SDS011;11524;50.846;4.326;2022-10-31T04:32:10;4.07;;;3.35;;
22713;SDS011;11524;50.846;4.326;2022-10-31T04:34:36;4.78;;;3.60;;
22713;SDS011;11524;50.846;4.326;2022-10-31T04:37:01;5.25;;;3.65;;
22713;SDS011;11524;50.846;4.326;2022-10-31T04:39:27;6.60;;;4.07;;
22713;SDS011;11524;50.846;4.326;2022-10-31T04:41:52;6.68;;;3.75;;
22713;SDS011;11524;50.846;4.326;2022-10-31T04:44:18;4.70;;;3.92;;
22713;SDS011;11524;50.846;4.326;2022-10-31T04:46:44;5.57;;;3.88;;
22713;SDS011;11524;50.846;4.326;2022-10-31T04:49:09;5.28;;;3.75;;
22713;SDS011;11524;50.846;4.326;2022-10-31T04:51:35;6.03;;;3.60;;
22713;SDS011;11524;50.846;4.326;2022-10-31T04:54:00;5.57;;;3.90;;
22713;SDS011;11524;50.846;4.326;2022-10-31T04:56:26;4.80;;;3.65;;
22713;SDS011;11524;50.846;4.326;2022-10-31T04:58:52;5.50;;;4.00;;
22713;SDS011;11524;50.846;4.326;2022-10-31T05:01:17;7.10;;;3.55;;
22713;SDS011;11524;50.846;4.326;2022-10-31T05:03:43;6.22;;;4.03;;
22713;SDS011;11524;50.846;4.326;2022-10-31T05:06:09;9.52;;;4.35;;
22713;SDS011;11524;50.846;4.326;2022-10-31T05:08:34;6.13;;;4.05;;
22713;SDS011;11524;50.846;4.326;2022-10-31T05:11:03;6.82;;;4.13;;
22713;SDS011;11524;50.846;4.326;2022-10-31T05:13:29;5.63;;;3.50;;
22713;SDS011;11524;50.846;4.326;2022-10-31T05:15:54;5.28;;;3.70;;
22713;SDS011;11524;50.846;4.326;2022-10-31T05:18:20;5.63;;;4.10;;
22713;SDS011;11524;50.846;4.326;2022-10-31T05:20:46;6.43;;;3.90;;
22713;SDS011;11524;50.846;4.326;2022-10-31T05:23:11;5.38;;;3.80;;
22713;SDS011;11524;50.846;4.326;2022-10-31T05:25:37;5.13;;;3.53;;
22713;SDS011;11524;50.846;4.326;2022-10-31T05:28:04;8.05;;;3.67;;
22713;SDS011;11524;50.846;4.326;2022-10-31T05:30:31;4.95;;;4.10;;
22713;SDS011;11524;50.846;4.326;2022-10-31T05:32:56;7.07;;;4.13;;
22713;SDS011;11524;50.846;4.326;2022-10-31T05:35:23;4.50;;;3.65;;
22713;SDS011;11524;50.846;4.326;2022-10-31T05:37:50;4.88;;;3.50;;
22713;SDS011;11524;50.846;4.326;2022-10-31T05:40:16;6.00;;;4.03;;
22713;SDS011;11524;50.846;4.326;2022-10-31T05:42:44;6.00;;;3.60;;
22713;SDS011;11524;50.846;4.326;2022-10-31T05:45:11;7.32;;;3.80;;
22713;SDS011;11524;50.846;4.326;2022-10-31T05:47:40;4.53;;;3.40;;
22713;SDS011;11524;50.846;4.326;2022-10-31T05:50:06;3.50;;;2.83;;
22713;SDS011;11524;50.846;4.326;2022-10-31T05:52:33;3.40;;;2.60;;
22713;SDS011;11524;50.846;4.326;2022-10-31T05:54:58;3.75;;;2.63;;
22713;SDS011;11524;50.846;4.326;2022-10-31T05:57:24;4.15;;;2.90;;
22713;SDS011;11524;50.846;4.326;2022-10-31T05:59:50;10.70;;;5.72;;
22713;SDS011;11524;50.846;4.326;2022-10-31T06:02:18;9.85;;;5.63;;
22713;SDS011;11524;50.846;4.326;2022-10-31T06:04:44;8.73;;;5.72;;
22713;SDS011;11524;50.846;4.326;2022-10-31T06:07:09;11.13;;;5.90;;
22713;SDS011;11524;50.846;4.326;2022-10-31T06:09:35;10.80;;;5.95;;
22713;SDS011;11524;50.846;4.326;2022-10-31T06:12:01;11.23;;;6.40;;
22713;SDS011;11524;50.846;4.326;2022-10-31T06:14:26;12.10;;;5.50;;
22713;SDS011;11524;50.846;4.326;2022-10-31T06:16:53;11.52;;;6.55;;
22713;SDS011;11524;50.846;4.326;2022-10-31T06:19:19;13.45;;;6.28;;
22713;SDS011;11524;50.846;4.326;2022-10-31T06:21:45;13.30;;;6.20;;
22713;SDS011;11524;50.846;4.326;2022-10-31T06:24:10;18.58;;;6.32;;
22713;SDS011;11524;50.846;4.326;2022-10-31T06:26:36;9.43;;;6.03;;
22713;SDS011;11524;50.846;4.326;2022-10-31T06:29:01;15.43;;;6.40;;
22713;SDS011;11524;50.846;4.326;2022-10-31T06:31:27;9.43;;;6.10;;
22713;SDS011;11524;50.846;4.326;2022-10-31T06:33:52;13.18;;;6.45;;
22713;SDS011;11524;50.846;4.326;2022-10-31T06:36:18;11.27;;;6.00;;
22713;SDS011;11524;50.846;4.326;2022-10-31T06:38:44;11.70;;;6.43;;
22713;SDS011;11524;50.846;4.326;2022-10-31T06:41:09;13.85;;;6.68;;
22713;SDS011;11524;50.846;4.326;2022-10-31T06:43:35;10.02;;;6.53;;
22713;SDS011;11524;50.846;4.326;2022-10-31T06:46:04;12.48;;;6.55;;
22713;SDS011;11524;50.846;4.326;2022-10-31T06:48:30;10.13;;;6.25;;
22713;SDS011;11524;50.846;4.326;2022-10-31T06:50:59;11.88;;;6.53;;
22713;SDS011;11524;50.846;4.326;2022-10-31T06:53:26;16.40;;;7.03;;
22713;SDS011;11524;50.846;4.326;2022-10-31T06:55:54;11.88;;;6.65;;
22713;SDS011;11524;50.846;4.326;2022-10-31T06:58:21;13.38;;;6.82;;
22713;SDS011;11524;50.846;4.326;2022-10-31T07:00:47;13.07;;;6.97;;
22713;SDS011;11524;50.846;4.326;2022-10-31T07:03:13;16.40;;;7.20;;
22713;SDS011;11524;50.846;4.326;2022-10-31T07:05:40;12.57;;;6.88;;
22713;SDS011;11524;50.846;4.326;2022-10-31T07:08:07;10.68;;;6.00;;
22713;SDS011;11524;50.846;4.326;2022-10-31T07:10:35;11.00;;;6.50;;
22713;SDS011;11524;50.846;4.326;2022-10-31T07:13:05;14.55;;;6.90;;
22713;SDS011;11524;50.846;4.326;2022-10-31T07:15:35;11.03;;;6.70;;
22713;SDS011;11524;50.846;4.326;2022-10-31T07:18:07;12.63;;;6.80;;
22713;SDS011;11524;50.846;4.326;2022-10-31T07:20:34;13.30;;;7.35;;
22713;SDS011;11524;50.846;4.326;2022-10-31T07:23:00;14.73;;;6.32;;
22713;SDS011;11524;50.846;4.326;2022-10-31T07:25:26;11.45;;;6.72;;
22713;SDS011;11524;50.846;4.326;2022-10-31T07:27:52;13.40;;;7.03;;
22713;SDS011;11524;50.846;4.326;2022-10-31T07:30:17;14.45;;;7.40;;
22713;SDS011;11524;50.846;4.326;2022-10-31T07:32:47;15.60;;;7.65;;
22713;SDS011;11524;50.846;4.326;2022-10-31T07:35:19;13.10;;;6.85;;
22713;SDS011;11524;50.846;4.326;2022-10-31T07:37:49;12.23;;;6.32;;
22713;SDS011;11524;50.846;4.326;2022-10-31T07:40:15;11.43;;;7.03;;
22713;SDS011;11524;50.846;4.326;2022-10-31T07:42:43;13.35;;;6.85;;
22713;SDS011;11524;50.846;4.326;2022-10-31T07:45:11;13.38;;;7.13;;
22713;SDS011;11524;50.846;4.326;2022-10-31T07:47:40;15.73;;;6.93;;
22713;SDS011;11524;50.846;4.326;2022-10-31T07:50:14;18.60;;;7.47;;
22713;SDS011;11524;50.846;4.326;2022-10-31T07:52:41;16.73;;;6.82;;
22713;SDS011;11524;50.846;4.326;2022-10-31T07:55:07;11.40;;;6.80;;
22713;SDS011;11524;50.846;4.326;2022-10-31T07:57:33;12.38;;;6.80;;
22713;SDS011;11524;50.846;4.326;2022-10-31T07:59:59;13.55;;;7.10;;
22713;SDS011;11524;50.846;4.326;2022-10-31T08:02:24;12.23;;;6.68;;
22713;SDS011;11524;50.846;4.326;2022-10-31T08:04:50;9.95;;;6.03;;
22713;SDS011;11524;50.846;4.326;2022-10-31T08:07:16;13.43;;;7.20;;
22713;SDS011;11524;50.846;4.326;2022-10-31T08:09:42;11.07;;;6.15;;
22713;SDS011;11524;50.846;4.326;2022-10-31T08:12:08;12.77;;;6.40;;
22713;SDS011;11524;50.846;4.326;2022-10-31T08:14:33;14.05;;;7.68;;
22713;SDS011;11524;50.846;4.326;2022-10-31T08:16:59;14.02;;;6.68;;
22713;SDS011;11524;50.846;4.326;2022-10-31T08:19:24;14.05;;;7.60;;
22713;SDS011;11524;50.846;4.326;2022-10-31T08:21:50;20.85;;;10.27;;
22713;SDS011;11524;50.846;4.326;2022-10-31T08:24:17;17.38;;;8.88;;
22713;SDS011;11524;50.846;4.326;2022-10-31T08:26:43;14.05;;;7.28;;
22713;SDS011;11524;50.846;4.326;2022-10-31T08:29:09;9.15;;;6.07;;
22713;SDS011;11524;50.846;4.326;2022-10-31T08:31:34;10.45;;;5.45;;
22713;SDS011;11524;50.846;4.326;2022-10-31T08:34:00;19.77;;;12.40;;
22713;SDS011;11524;50.846;4.326;2022-10-31T08:36:26;33.38;;;18.55;;
22713;SDS011;11524;50.846;4.326;2022-10-31T08:38:52;18.13;;;10.63;;
22713;SDS011;11524;50.846;4.326;2022-10-31T08:41:18;12.55;;;8.38;;
22713;SDS011;11524;50.846;4.326;2022-10-31T08:43:44;10.98;;;6.05;;
22713;SDS011;11524;50.846;4.326;2022-10-31T08:46:10;13.68;;;6.50;;
22713;SDS011;11524;50.846;4.326;2022-10-31T08:48:35;9.98;;;7.13;;
22713;SDS011;11524;50.846;4.326;2022-10-31T08:51:01;14.98;;;8.60;;
22713;SDS011;11524;50.846;4.326;2022-10-31T08:53:27;12.88;;;6.85;;
22713;SDS011;11524;50.846;4.326;2022-10-31T08:55:54;11.52;;;5.60;;
22713;SDS011;11524;50.846;4.326;2022-10-31T08:58:21;10.20;;;6.07;;
22713;SDS011;11524;50.846;4.326;2022-10-31T09:00:48;10.40;;;5.60;;
22713;SDS011;11524;50.846;4.326;2022-10-31T09:03:16;10.05;;;5.35;;
22713;SDS011;11524;50.846;4.326;2022-10-31T09:05:43;9.88;;;6.10;;
22713;SDS011;11524;50.846;4.326;2022-10-31T09:08:10;7.97;;;5.45;;
22713;SDS011;11524;50.846;4.326;2022-10-31T09:10:36;8.63;;;5.03;;
22713;SDS011;11524;50.846;4.326;2022-10-31T09:13:04;7.47;;;5.30;;
22713;SDS011;11524;50.846;4.326;2022-10-31T09:15:32;10.00;;;5.78;;
22713;SDS011;11524;50.846;4.326;2022-10-31T09:18:03;8.23;;;4.70;;
22713;SDS011;11524;50.846;4.326;2022-10-31T09:20:30;8.10;;;5.07;;
22713;SDS011;11524;50.846;4.326;2022-10-31T09:22:57;11.10;;;5.60;;
22713;SDS011;11524;50.846;4.326;2022-10-31T09:25:23;12.07;;;5.53;;
22713;SDS011;11524;50.846;4.326;2022-10-31T09:27:49;8.48;;;5.07;;
22713;SDS011;11524;50.846;4.326;2022-10-31T09:30:15;8.23;;;5.13;;
22713;SDS011;11524;50.846;4.326;2022-10-31T09:32:41;10.20;;;5.50;;
22713;SDS011;11524;50.846;4.326;2022-10-31T09:35:06;10.52;;;5.70;;
22713;SDS011;11524;50.846;4.326;2022-10-31T09:37:32;9.13;;;5.05;;
22713;SDS011;11524;50.846;4.326;2022-10-31T09:39:58;9.57;;;5.07;;
22713;SDS011;11524;50.846;4.326;2022-10-31T09:42:40;9.02;;;5.45;;
22713;SDS011;11524;50.846;4.326;2022-10-31T09:45:34;9.40;;;4.95;;
22713;SDS011;11524;50.846;4.326;2022-10-31T09:50:48;10.25;;;4.65;;
22713;SDS011;11524;50.846;4.326;2022-10-31T09:56:14;7.55;;;4.80;;
22713;SDS011;11524;50.846;4.326;2022-10-31T09:58:43;9.73;;;5.28;;
22713;SDS011;11524;50.846;4.326;2022-10-31T10:01:23;9.05;;;5.60;;
22713;SDS011;11524;50.846;4.326;2022-10-31T10:03:52;8.95;;;5.10;;
22713;SDS011;11524;50.846;4.326;2022-10-31T10:06:24;11.30;;;5.60;;
22713;SDS011;11524;50.846;4.326;2022-10-31T10:08:53;11.88;;;5.18;;
22713;SDS011;11524;50.846;4.326;2022-10-31T10:11:25;7.78;;;5.20;;
22713;SDS011;11524;50.846;4.326;2022-10-31T10:14:12;9.55;;;5.78;;
22713;SDS011;11524;50.846;4.326;2022-10-31T10:17:05;10.95;;;5.55;;
22713;SDS011;11524;50.846;4.326;2022-10-31T10:22:11;8.65;;;5.32;;
22713;SDS011;11524;50.846;4.326;2022-10-31T10:24:56;10.68;;;4.93;;
22713;SDS011;11524;50.846;4.326;2022-10-31T10:32:43;13.95;;;8.57;;
22713;SDS011;11524;50.846;4.326;2022-10-31T10:35:32;17.55;;;9.82;;
22713;SDS011;11524;50.846;4.326;2022-10-31T10:38:02;20.77;;;8.95;;
22713;SDS011;11524;50.846;4.326;2022-10-31T10:40:48;14.05;;;7.70;;
22713;SDS011;11524;50.846;4.326;2022-10-31T10:43:30;14.80;;;8.93;;
22713;SDS011;11524;50.846;4.326;2022-10-31T10:46:16;17.73;;;8.57;;
22713;SDS011;11524;50.846;4.326;2022-10-31T10:49:16;23.88;;;12.45;;
22713;SDS011;11524;50.846;4.326;2022-10-31T10:57:19;11.40;;;6.50;;
22713;SDS011;11524;50.846;4.326;2022-10-31T10:59:52;10.07;;;6.20;;
22713;SDS011;11524;50.846;4.326;2022-10-31T11:04:56;12.55;;;7.30;;
22713;SDS011;11524;50.846;4.326;2022-10-31T11:07:25;13.60;;;6.35;;
22713;SDS011;11524;50.846;4.326;2022-10-31T11:10:02;19.70;;;10.77;;
22713;SDS011;11524;50.846;4.326;2022-10-31T11:12:31;15.20;;;7.78;;
22713;SDS011;11524;50.846;4.326;2022-10-31T11:14:59;13.13;;;6.35;;
22713;SDS011;11524;50.846;4.326;2022-10-31T11:17:39;11.95;;;6.32;;
22713;SDS011;11524;50.846;4.326;2022-10-31T11:22:36;15.45;;;6.70;;
22713;SDS011;11524;50.846;4.326;2022-10-31T11:28:04;9.98;;;6.03;;
22713;SDS011;11524;50.846;4.326;2022-10-31T11:30:42;11.38;;;5.68;;
22713;SDS011;11524;50.846;4.326;2022-10-31T11:33:17;16.13;;;6.72;;
22713;SDS011;11524;50.846;4.326;2022-10-31T11:35:43;15.23;;;6.57;;
22713;SDS011;11524;50.846;4.326;2022-10-31T11:38:12;12.45;;;6.15;;
22713;SDS011;11524;50.846;4.326;2022-10-31T11:40:50;13.50;;;6.53;;
22713;SDS011;11524;50.846;4.326;2022-10-31T11:43:18;11.32;;;6.22;;
22713;SDS011;11524;50.846;4.326;2022-10-31T11:45:44;10.50;;;6.00;;
22713;SDS011;11524;50.846;4.326;2022-10-31T11:48:16;13.73;;;6.13;;
22713;SDS011;11524;50.846;4.326;2022-10-31T11:50:47;12.30;;;6.10;;
22713;SDS011;11524;50.846;4.326;2022-10-31T11:53:16;12.57;;;6.15;;
22713;SDS011;11524;50.846;4.326;2022-10-31T11:56:03;12.32;;;6.63;;
22713;SDS011;11524;50.846;4.326;2022-10-31T11:58:38;11.05;;;7.10;;
22713;SDS011;11524;50.846;4.326;2022-10-31T12:01:04;14.95;;;7.00;;
22713;SDS011;11524;50.846;4.326;2022-10-31T12:06:36;18.80;;;6.80;;
22713;SDS011;11524;50.846;4.326;2022-10-31T12:17:49;13.35;;;6.60;;
22713;SDS011;11524;50.846;4.326;2022-10-31T12:20:41;14.13;;;6.30;;
22713;SDS011;11524;50.846;4.326;2022-10-31T12:26:16;10.48;;;6.60;;
22713;SDS011;11524;50.846;4.326;2022-10-31T12:32:01;11.25;;;6.30;;
22713;SDS011;11524;50.846;4.326;2022-10-31T12:46:18;13.88;;;7.28;;
22713;SDS011;11524;50.846;4.326;2022-10-31T12:51:40;11.63;;;6.15;;
22713;SDS011;11524;50.846;4.326;2022-10-31T12:59:43;15.02;;;5.93;;
22713;SDS011;11524;50.846;4.326;2022-10-31T13:07:57;12.18;;;5.72;;
22713;SDS011;11524;50.846;4.326;2022-10-31T13:10:42;13.07;;;6.00;;
22713;SDS011;11524;50.846;4.326;2022-10-31T13:13:35;12.50;;;5.88;;
22713;SDS011;11524;50.846;4.326;2022-10-31T13:16:13;15.25;;;6.75;;
22713;SDS011;11524;50.846;4.326;2022-10-31T13:21:51;11.25;;;5.00;;
22713;SDS011;11524;50.846;4.326;2022-10-31T13:24:22;12.00;;;5.78;;
22713;SDS011;11524;50.846;4.326;2022-10-31T13:26:56;11.52;;;5.60;;
22713;SDS011;11524;50.846;4.326;2022-10-31T13:29:33;11.90;;;6.50;;
22713;SDS011;11524;50.846;4.326;2022-10-31T13:32:05;11.25;;;5.55;;
22713;SDS011;11524;50.846;4.326;2022-10-31T13:34:42;15.68;;;6.13;;
22713;SDS011;11524;50.846;4.326;2022-10-31T13:43:13;19.25;;;6.47;;
22713;SDS011;11524;50.846;4.326;2022-10-31T13:45:49;12.50;;;5.55;;
22713;SDS011;11524;50.846;4.326;2022-10-31T13:50:42;14.20;;;5.97;;
22713;SDS011;11524;50.846;4.326;2022-10-31T13:53:20;12.95;;;6.20;;
22713;SDS011;11524;50.846;4.326;2022-10-31T13:56:02;10.77;;;5.80;;
22713;SDS011;11524;50.846;4.326;2022-10-31T13:58:35;14.85;;;5.72;;
22713;SDS011;11524;50.846;4.326;2022-10-31T14:03:33;10.07;;;5.97;;
22713;SDS011;11524;50.846;4.326;2022-10-31T14:06:05;12.88;;;6.43;;
22713;SDS011;11524;50.846;4.326;2022-10-31T14:08:35;16.10;;;6.93;;
22713;SDS011;11524;50.846;4.326;2022-10-31T14:11:06;15.38;;;6.50;;
22713;SDS011;11524;50.846;4.326;2022-10-31T14:13:51;17.75;;;6.38;;
22713;SDS011;11524;50.846;4.326;2022-10-31T14:16:28;14.27;;;6.68;;
22713;SDS011;11524;50.846;4.326;2022-10-31T14:18:59;15.60;;;6.35;;
22713;SDS011;11524;50.846;4.326;2022-10-31T14:21:37;13.98;;;6.20;;
22713;SDS011;11524;50.846;4.326;2022-10-31T14:50:44;10.65;;;4.63;;
22713;SDS011;11524;50.846;4.326;2022-10-31T14:53:18;15.05;;;5.85;;
22713;SDS011;11524;50.846;4.326;2022-10-31T14:55:49;16.58;;;7.47;;
22713;SDS011;11524;50.846;4.326;2022-10-31T14:58:28;12.40;;;5.70;;
22713;SDS011;11524;50.846;4.326;2022-10-31T15:00:57;15.23;;;5.38;;
22713;SDS011;11524;50.846;4.326;2022-10-31T15:06:05;11.82;;;4.70;;
22713;SDS011;11524;50.846;4.326;2022-10-31T15:11:21;13.73;;;5.13;;
22713;SDS011;11524;50.846;4.326;2022-10-31T15:18:59;15.35;;;6.45;;
22713;SDS011;11524;50.846;4.326;2022-10-31T15:21:28;11.07;;;5.40;;
22713;SDS011;11524;50.846;4.326;2022-10-31T15:23:55;13.00;;;5.45;;
22713;SDS011;11524;50.846;4.326;2022-10-31T15:26:24;13.40;;;5.20;;
22713;SDS011;11524;50.846;4.326;2022-10-31T15:34:18;15.00;;;6.80;;
22713;SDS011;11524;50.846;4.326;2022-10-31T15:36:51;15.35;;;5.72;;
22713;SDS011;11524;50.846;4.326;2022-10-31T15:39:17;17.17;;;6.47;;
22713;SDS011;11524;50.846;4.326;2022-10-31T15:41:48;10.25;;;5.63;;
22713;SDS011;11524;50.846;4.326;2022-10-31T15:44:23;18.15;;;6.45;;
22713;SDS011;11524;50.846;4.326;2022-10-31T15:46:55;12.63;;;6.70;;
22713;SDS011;11524;50.846;4.326;2022-10-31T15:51:57;15.93;;;8.60;;
22713;SDS011;11524;50.846;4.326;2022-10-31T15:54:27;13.20;;;7.22;;
22713;SDS011;11524;50.846;4.326;2022-10-31T15:56:53;17.98;;;7.60;;
22713;SDS011;11524;50.846;4.326;2022-10-31T15:59:20;21.85;;;7.68;;
22713;SDS011;11524;50.846;4.326;2022-10-31T16:01:59;15.07;;;6.88;;
22713;SDS011;11524;50.846;4.326;2022-10-31T16:04:26;13.40;;;5.97;;
22713;SDS011;11524;50.846;4.326;2022-10-31T16:09:49;12.93;;;6.70;;
22713;SDS011;11524;50.846;4.326;2022-10-31T16:12:16;17.55;;;8.10;;
22713;SDS011;11524;50.846;4.326;2022-10-31T16:14:42;17.92;;;7.30;;
22713;SDS011;11524;50.846;4.326;2022-10-31T16:17:12;15.27;;;6.78;;
22713;SDS011;11524;50.846;4.326;2022-10-31T16:20:16;13.43;;;7.47;;
22713;SDS011;11524;50.846;4.326;2022-10-31T16:22:33;16.90;;;7.90;;
22713;SDS011;11524;50.846;4.326;2022-10-31T16:27:37;16.27;;;8.57;;
22713;SDS011;11524;50.846;4.326;2022-10-31T16:35:50;20.05;;;8.65;;
22713;SDS011;11524;50.846;4.326;2022-10-31T16:38:16;19.58;;;8.65;;
22713;SDS011;11524;50.846;4.326;2022-10-31T16:40:42;22.50;;;9.05;;
22713;SDS011;11524;50.846;4.326;2022-10-31T16:43:10;17.95;;;8.98;;
22713;SDS011;11524;50.846;4.326;2022-10-31T16:45:37;19.65;;;8.45;;
22713;SDS011;11524;50.846;4.326;2022-10-31T16:48:13;16.02;;;8.27;;
22713;SDS011;11524;50.846;4.326;2022-10-31T16:50:41;18.85;;;7.88;;
22713;SDS011;11524;50.846;4.326;2022-10-31T16:53:09;19.35;;;8.02;;
22713;SDS011;11524;50.846;4.326;2022-10-31T16:55:40;24.60;;;7.75;;
22713;SDS011;11524;50.846;4.326;2022-10-31T16:58:12;19.63;;;7.60;;
22713;SDS011;11524;50.846;4.326;2022-10-31T17:00:47;14.55;;;7.28;;
22713;SDS011;11524;50.846;4.326;2022-10-31T17:03:13;19.80;;;6.65;;
22713;SDS011;11524;50.846;4.326;2022-10-31T17:05:39;17.77;;;6.30;;
22713;SDS011;11524;50.846;4.326;2022-10-31T17:08:04;13.25;;;6.40;;
22713;SDS011;11524;50.846;4.326;2022-10-31T17:10:30;16.05;;;6.50;;
22713;SDS011;11524;50.846;4.326;2022-10-31T17:12:56;15.18;;;6.00;;
22713;SDS011;11524;50.846;4.326;2022-10-31T17:15:24;20.73;;;6.88;;
22713;SDS011;11524;50.846;4.326;2022-10-31T17:17:51;12.75;;;6.22;;
22713;SDS011;11524;50.846;4.326;2022-10-31T17:20:22;20.73;;;6.28;;
22713;SDS011;11524;50.846;4.326;2022-10-31T17:22:49;17.02;;;7.43;;
22713;SDS011;11524;50.846;4.326;2022-10-31T17:25:16;29.25;;;13.18;;
22713;SDS011;11524;50.846;4.326;2022-10-31T17:27:44;21.58;;;7.60;;
22713;SDS011;11524;50.846;4.326;2022-10-31T17:30:11;13.50;;;5.93;;
22713;SDS011;11524;50.846;4.326;2022-10-31T17:32:38;13.48;;;6.32;;
22713;SDS011;11524;50.846;4.326;2022-10-31T17:35:04;12.70;;;5.47;;
22713;SDS011;11524;50.846;4.326;2022-10-31T17:37:30;14.95;;;5.85;;
22713;SDS011;11524;50.846;4.326;2022-10-31T17:39:55;13.25;;;5.22;;
22713;SDS011;11524;50.846;4.326;2022-10-31T17:42:21;14.63;;;5.32;;